sensor_id;sensor_type;location;lat;lon;timestamp;P1;durP1;ratioP1;P2;durP2;ratioP2
53064;SDS011;38948;48.376;-4.312;2022-07-29T00:00:53;4.20;;;1.67;;
53064;SDS011;38948;48.376;-4.312;2022-07-29T00:03:19;3.35;;;1.60;;
53064;SDS011;38948;48.376;-4.312;2022-07-29T00:05:45;3.42;;;1.58;;
53064;SDS011;38948;48.376;-4.312;2022-07-29T00:08:11;3.28;;;1.60;;
53064;SDS011;38948;48.376;-4.312;2022-07-29T00:10:38;3.17;;;1.10;;
53064;SDS011;38948;48.376;-4.312;2022-07-29T00:13:04;2.38;;;1.50;;
53064;SDS011;38948;48.376;-4.312;2022-07-29T00:15:30;2.38;;;1.30;;
53064;SDS011;38948;48.376;-4.312;2022-07-29T00:17:56;2.70;;;1.50;;
53064;SDS011;38948;48.376;-4.312;2022-07-29T00:20:22;4.38;;;1.55;;
53064;SDS011;38948;48.376;-4.312;2022-07-29T00:22:48;3.63;;;1.83;;
53064;SDS011;38948;48.376;-4.312;2022-07-29T00:25:14;3.92;;;1.40;;
53064;SDS011;38948;48.376;-4.312;2022-07-29T00:27:41;3.70;;;1.45;;
53064;SDS011;38948;48.376;-4.312;2022-07-29T00:30:07;4.55;;;1.67;;
53064;SDS011;38948;48.376;-4.312;2022-07-29T00:32:33;4.15;;;1.90;;
53064;SDS011;38948;48.376;-4.312;2022-07-29T00:34:59;3.10;;;1.70;;
53064;SDS011;38948;48.376;-4.312;2022-07-29T00:37:44;2.60;;;1.30;;
53064;SDS011;38948;48.376;-4.312;2022-07-29T00:40:10;4.22;;;2.13;;
53064;SDS011;38948;48.376;-4.312;2022-07-29T00:42:43;4.75;;;2.00;;
53064;SDS011;38948;48.376;-4.312;2022-07-29T00:45:09;2.70;;;1.80;;
53064;SDS011;38948;48.376;-4.312;2022-07-29T00:47:35;4.20;;;1.90;;
53064;SDS011;38948;48.376;-4.312;2022-07-29T00:50:02;5.78;;;1.80;;
53064;SDS011;38948;48.376;-4.312;2022-07-29T00:52:28;4.30;;;2.13;;
53064;SDS011;38948;48.376;-4.312;2022-07-29T00:54:55;4.85;;;2.20;;
53064;SDS011;38948;48.376;-4.312;2022-07-29T00:57:21;3.28;;;2.00;;
53064;SDS011;38948;48.376;-4.312;2022-07-29T00:59:48;3.30;;;2.05;;
53064;SDS011;38948;48.376;-4.312;2022-07-29T01:02:14;3.35;;;2.17;;
53064;SDS011;38948;48.376;-4.312;2022-07-29T01:04:40;5.95;;;2.28;;
53064;SDS011;38948;48.376;-4.312;2022-07-29T01:07:07;4.03;;;2.17;;
53064;SDS011;38948;48.376;-4.312;2022-07-29T01:09:34;5.25;;;2.17;;
53064;SDS011;38948;48.376;-4.312;2022-07-29T01:12:00;3.55;;;2.00;;
53064;SDS011;38948;48.376;-4.312;2022-07-29T01:14:27;4.32;;;2.05;;
53064;SDS011;38948;48.376;-4.312;2022-07-29T01:19:41;3.85;;;2.03;;
53064;SDS011;38948;48.376;-4.312;2022-07-29T01:29:49;4.40;;;2.30;;
53064;SDS011;38948;48.376;-4.312;2022-07-29T01:32:39;3.40;;;1.58;;
53064;SDS011;38948;48.376;-4.312;2022-07-29T01:35:05;5.30;;;2.22;;
53064;SDS011;38948;48.376;-4.312;2022-07-29T01:39:58;4.68;;;2.13;;
53064;SDS011;38948;48.376;-4.312;2022-07-29T01:42:38;3.22;;;1.90;;
53064;SDS011;38948;48.376;-4.312;2022-07-29T01:45:12;4.65;;;2.00;;
53064;SDS011;38948;48.376;-4.312;2022-07-29T01:47:50;5.13;;;1.58;;
53064;SDS011;38948;48.376;-4.312;2022-07-29T01:50:18;3.28;;;1.92;;
53064;SDS011;38948;48.376;-4.312;2022-07-29T01:52:49;4.90;;;2.08;;
53064;SDS011;38948;48.376;-4.312;2022-07-29T01:55:16;5.65;;;1.92;;
53064;SDS011;38948;48.376;-4.312;2022-07-29T01:57:45;4.28;;;1.98;;
53064;SDS011;38948;48.376;-4.312;2022-07-29T02:00:12;4.03;;;1.90;;
53064;SDS011;38948;48.376;-4.312;2022-07-29T02:02:39;4.18;;;1.92;;
53064;SDS011;38948;48.376;-4.312;2022-07-29T02:05:06;3.67;;;2.35;;
53064;SDS011;38948;48.376;-4.312;2022-07-29T02:07:33;3.13;;;2.17;;
53064;SDS011;38948;48.376;-4.312;2022-07-29T02:10:00;5.43;;;2.33;;
53064;SDS011;38948;48.376;-4.312;2022-07-29T02:12:27;6.35;;;2.45;;
53064;SDS011;38948;48.376;-4.312;2022-07-29T02:14:54;4.90;;;2.17;;
53064;SDS011;38948;48.376;-4.312;2022-07-29T02:17:23;5.38;;;2.33;;
53064;SDS011;38948;48.376;-4.312;2022-07-29T02:19:51;4.03;;;2.03;;
53064;SDS011;38948;48.376;-4.312;2022-07-29T02:22:18;5.57;;;2.15;;
53064;SDS011;38948;48.376;-4.312;2022-07-29T02:24:45;6.63;;;2.30;;
53064;SDS011;38948;48.376;-4.312;2022-07-29T02:27:12;4.82;;;2.13;;
53064;SDS011;38948;48.376;-4.312;2022-07-29T02:29:39;3.60;;;1.77;;
53064;SDS011;38948;48.376;-4.312;2022-07-29T02:32:05;3.90;;;2.10;;
53064;SDS011;38948;48.376;-4.312;2022-07-29T02:34:32;4.07;;;2.13;;
53064;SDS011;38948;48.376;-4.312;2022-07-29T02:36:59;3.42;;;1.90;;
53064;SDS011;38948;48.376;-4.312;2022-07-29T02:39:25;3.17;;;1.88;;
53064;SDS011;38948;48.376;-4.312;2022-07-29T02:42:07;4.00;;;1.83;;
53064;SDS011;38948;48.376;-4.312;2022-07-29T02:44:33;3.65;;;1.45;;
53064;SDS011;38948;48.376;-4.312;2022-07-29T02:54:55;4.60;;;1.90;;
53064;SDS011;38948;48.376;-4.312;2022-07-29T02:57:27;3.42;;;2.05;;
53064;SDS011;38948;48.376;-4.312;2022-07-29T02:59:54;4.15;;;1.75;;
53064;SDS011;38948;48.376;-4.312;2022-07-29T03:02:22;5.10;;;1.80;;
53064;SDS011;38948;48.376;-4.312;2022-07-29T03:04:48;6.28;;;1.98;;
53064;SDS011;38948;48.376;-4.312;2022-07-29T03:07:15;3.20;;;2.28;;
53064;SDS011;38948;48.376;-4.312;2022-07-29T03:09:44;3.17;;;1.98;;
53064;SDS011;38948;48.376;-4.312;2022-07-29T03:12:11;3.35;;;1.75;;
53064;SDS011;38948;48.376;-4.312;2022-07-29T03:14:38;3.53;;;1.73;;
53064;SDS011;38948;48.376;-4.312;2022-07-29T03:17:04;3.95;;;1.73;;
53064;SDS011;38948;48.376;-4.312;2022-07-29T03:19:31;3.25;;;1.95;;
53064;SDS011;38948;48.376;-4.312;2022-07-29T03:21:57;5.38;;;1.77;;
53064;SDS011;38948;48.376;-4.312;2022-07-29T03:24:27;3.47;;;2.20;;
53064;SDS011;38948;48.376;-4.312;2022-07-29T03:26:54;2.88;;;1.85;;
53064;SDS011;38948;48.376;-4.312;2022-07-29T03:29:20;3.15;;;1.67;;
53064;SDS011;38948;48.376;-4.312;2022-07-29T03:31:46;5.70;;;1.90;;
53064;SDS011;38948;48.376;-4.312;2022-07-29T03:34:12;4.55;;;1.98;;
53064;SDS011;38948;48.376;-4.312;2022-07-29T03:36:38;3.08;;;1.75;;
53064;SDS011;38948;48.376;-4.312;2022-07-29T03:39:05;3.65;;;2.00;;
53064;SDS011;38948;48.376;-4.312;2022-07-29T03:41:31;2.88;;;1.58;;
53064;SDS011;38948;48.376;-4.312;2022-07-29T03:43:58;3.17;;;2.20;;
53064;SDS011;38948;48.376;-4.312;2022-07-29T03:46:24;3.38;;;1.80;;
53064;SDS011;38948;48.376;-4.312;2022-07-29T03:48:52;3.53;;;1.80;;
53064;SDS011;38948;48.376;-4.312;2022-07-29T03:51:21;3.15;;;2.00;;
53064;SDS011;38948;48.376;-4.312;2022-07-29T03:53:47;4.03;;;2.58;;
53064;SDS011;38948;48.376;-4.312;2022-07-29T03:56:15;2.78;;;1.92;;
53064;SDS011;38948;48.376;-4.312;2022-07-29T03:58:41;3.92;;;1.60;;
53064;SDS011;38948;48.376;-4.312;2022-07-29T04:01:07;3.47;;;1.60;;
53064;SDS011;38948;48.376;-4.312;2022-07-29T04:03:34;3.05;;;1.80;;
53064;SDS011;38948;48.376;-4.312;2022-07-29T04:06:04;4.28;;;2.35;;
53064;SDS011;38948;48.376;-4.312;2022-07-29T04:08:31;3.38;;;1.95;;
53064;SDS011;38948;48.376;-4.312;2022-07-29T04:10:58;4.80;;;2.00;;
53064;SDS011;38948;48.376;-4.312;2022-07-29T04:13:24;2.85;;;1.70;;
53064;SDS011;38948;48.376;-4.312;2022-07-29T04:15:50;2.75;;;1.70;;
53064;SDS011;38948;48.376;-4.312;2022-07-29T04:18:16;3.92;;;2.00;;
53064;SDS011;38948;48.376;-4.312;2022-07-29T04:20:42;4.38;;;2.08;;
53064;SDS011;38948;48.376;-4.312;2022-07-29T04:23:08;3.15;;;1.58;;
53064;SDS011;38948;48.376;-4.312;2022-07-29T04:25:38;4.20;;;1.73;;
53064;SDS011;38948;48.376;-4.312;2022-07-29T04:28:04;4.50;;;1.80;;
53064;SDS011;38948;48.376;-4.312;2022-07-29T04:30:31;2.95;;;1.63;;
53064;SDS011;38948;48.376;-4.312;2022-07-29T04:32:58;3.35;;;1.80;;
53064;SDS011;38948;48.376;-4.312;2022-07-29T04:35:26;3.58;;;1.60;;
53064;SDS011;38948;48.376;-4.312;2022-07-29T04:37:52;3.70;;;1.85;;
53064;SDS011;38948;48.376;-4.312;2022-07-29T04:40:18;2.33;;;1.50;;
53064;SDS011;38948;48.376;-4.312;2022-07-29T04:42:44;3.83;;;2.22;;
53064;SDS011;38948;48.376;-4.312;2022-07-29T04:45:10;4.47;;;1.73;;
53064;SDS011;38948;48.376;-4.312;2022-07-29T04:47:36;8.73;;;2.95;;
53064;SDS011;38948;48.376;-4.312;2022-07-29T04:50:03;3.45;;;1.70;;
53064;SDS011;38948;48.376;-4.312;2022-07-29T04:52:30;3.05;;;1.80;;
53064;SDS011;38948;48.376;-4.312;2022-07-29T04:54:56;3.10;;;1.60;;
53064;SDS011;38948;48.376;-4.312;2022-07-29T04:57:22;4.07;;;2.65;;
53064;SDS011;38948;48.376;-4.312;2022-07-29T04:59:48;1.92;;;1.55;;
53064;SDS011;38948;48.376;-4.312;2022-07-29T05:02:14;5.05;;;1.85;;
53064;SDS011;38948;48.376;-4.312;2022-07-29T05:04:40;2.50;;;1.63;;
53064;SDS011;38948;48.376;-4.312;2022-07-29T05:07:06;3.65;;;1.77;;
53064;SDS011;38948;48.376;-4.312;2022-07-29T05:09:32;4.03;;;1.83;;
53064;SDS011;38948;48.376;-4.312;2022-07-29T05:11:59;5.75;;;2.25;;
53064;SDS011;38948;48.376;-4.312;2022-07-29T05:14:25;4.53;;;2.47;;
53064;SDS011;38948;48.376;-4.312;2022-07-29T05:16:51;4.40;;;1.88;;
53064;SDS011;38948;48.376;-4.312;2022-07-29T05:19:18;3.22;;;1.98;;
53064;SDS011;38948;48.376;-4.312;2022-07-29T05:21:44;4.22;;;1.90;;
53064;SDS011;38948;48.376;-4.312;2022-07-29T05:24:10;8.07;;;1.90;;
53064;SDS011;38948;48.376;-4.312;2022-07-29T05:26:36;5.32;;;2.47;;
53064;SDS011;38948;48.376;-4.312;2022-07-29T05:29:02;4.22;;;1.95;;
53064;SDS011;38948;48.376;-4.312;2022-07-29T05:31:28;4.78;;;2.13;;
53064;SDS011;38948;48.376;-4.312;2022-07-29T05:33:54;7.72;;;2.28;;
53064;SDS011;38948;48.376;-4.312;2022-07-29T05:36:20;4.80;;;2.25;;
53064;SDS011;38948;48.376;-4.312;2022-07-29T05:38:46;3.67;;;2.05;;
53064;SDS011;38948;48.376;-4.312;2022-07-29T05:41:13;5.13;;;2.38;;
53064;SDS011;38948;48.376;-4.312;2022-07-29T05:43:39;3.80;;;2.05;;
53064;SDS011;38948;48.376;-4.312;2022-07-29T05:46:05;7.13;;;2.60;;
53064;SDS011;38948;48.376;-4.312;2022-07-29T05:48:31;4.60;;;2.38;;
53064;SDS011;38948;48.376;-4.312;2022-07-29T05:50:57;5.30;;;2.72;;
53064;SDS011;38948;48.376;-4.312;2022-07-29T05:53:23;5.50;;;2.10;;
53064;SDS011;38948;48.376;-4.312;2022-07-29T05:55:49;6.45;;;2.60;;
53064;SDS011;38948;48.376;-4.312;2022-07-29T05:58:16;4.53;;;2.22;;
53064;SDS011;38948;48.376;-4.312;2022-07-29T06:00:43;6.28;;;2.47;;
53064;SDS011;38948;48.376;-4.312;2022-07-29T06:03:09;4.25;;;2.35;;
53064;SDS011;38948;48.376;-4.312;2022-07-29T06:05:35;5.68;;;2.50;;
53064;SDS011;38948;48.376;-4.312;2022-07-29T06:08:01;4.05;;;2.35;;
53064;SDS011;38948;48.376;-4.312;2022-07-29T06:10:27;4.53;;;2.05;;
53064;SDS011;38948;48.376;-4.312;2022-07-29T06:12:53;5.05;;;2.95;;
53064;SDS011;38948;48.376;-4.312;2022-07-29T06:15:19;4.60;;;2.30;;
53064;SDS011;38948;48.376;-4.312;2022-07-29T06:17:46;5.13;;;2.80;;
53064;SDS011;38948;48.376;-4.312;2022-07-29T06:20:13;6.00;;;2.50;;
53064;SDS011;38948;48.376;-4.312;2022-07-29T06:22:39;5.65;;;2.63;;
53064;SDS011;38948;48.376;-4.312;2022-07-29T06:25:05;6.65;;;2.50;;
53064;SDS011;38948;48.376;-4.312;2022-07-29T06:27:31;7.80;;;2.63;;
53064;SDS011;38948;48.376;-4.312;2022-07-29T06:29:57;4.70;;;2.22;;
53064;SDS011;38948;48.376;-4.312;2022-07-29T06:32:23;6.78;;;2.17;;
53064;SDS011;38948;48.376;-4.312;2022-07-29T06:34:50;6.78;;;2.13;;
53064;SDS011;38948;48.376;-4.312;2022-07-29T06:37:16;5.88;;;2.22;;
53064;SDS011;38948;48.376;-4.312;2022-07-29T06:39:42;12.60;;;2.70;;
53064;SDS011;38948;48.376;-4.312;2022-07-29T06:42:08;3.45;;;1.90;;
53064;SDS011;38948;48.376;-4.312;2022-07-29T06:44:35;5.68;;;1.88;;
53064;SDS011;38948;48.376;-4.312;2022-07-29T06:47:01;5.57;;;2.25;;
53064;SDS011;38948;48.376;-4.312;2022-07-29T06:49:27;5.90;;;2.67;;
53064;SDS011;38948;48.376;-4.312;2022-07-29T06:51:53;4.55;;;1.80;;
53064;SDS011;38948;48.376;-4.312;2022-07-29T06:54:20;3.65;;;1.88;;
53064;SDS011;38948;48.376;-4.312;2022-07-29T06:56:46;4.68;;;1.80;;
53064;SDS011;38948;48.376;-4.312;2022-07-29T06:59:13;6.43;;;2.58;;
53064;SDS011;38948;48.376;-4.312;2022-07-29T07:01:40;5.35;;;2.05;;
53064;SDS011;38948;48.376;-4.312;2022-07-29T07:04:07;3.92;;;1.92;;
53064;SDS011;38948;48.376;-4.312;2022-07-29T07:06:33;4.72;;;2.38;;
53064;SDS011;38948;48.376;-4.312;2022-07-29T07:09:00;4.30;;;2.13;;
53064;SDS011;38948;48.376;-4.312;2022-07-29T07:11:26;5.75;;;1.90;;
53064;SDS011;38948;48.376;-4.312;2022-07-29T07:13:53;6.20;;;2.22;;
53064;SDS011;38948;48.376;-4.312;2022-07-29T07:16:19;3.67;;;2.00;;
53064;SDS011;38948;48.376;-4.312;2022-07-29T07:18:45;5.90;;;2.22;;
53064;SDS011;38948;48.376;-4.312;2022-07-29T07:21:11;5.50;;;2.58;;
53064;SDS011;38948;48.376;-4.312;2022-07-29T07:23:49;4.38;;;2.28;;
53064;SDS011;38948;48.376;-4.312;2022-07-29T07:26:15;4.57;;;2.33;;
53064;SDS011;38948;48.376;-4.312;2022-07-29T07:28:41;5.68;;;2.35;;
53064;SDS011;38948;48.376;-4.312;2022-07-29T07:31:08;4.72;;;2.10;;
53064;SDS011;38948;48.376;-4.312;2022-07-29T07:33:34;3.90;;;2.10;;
53064;SDS011;38948;48.376;-4.312;2022-07-29T07:36:00;4.65;;;2.40;;
53064;SDS011;38948;48.376;-4.312;2022-07-29T07:38:26;5.00;;;2.17;;
53064;SDS011;38948;48.376;-4.312;2022-07-29T07:40:53;6.13;;;2.47;;
53064;SDS011;38948;48.376;-4.312;2022-07-29T07:43:19;3.65;;;2.28;;
53064;SDS011;38948;48.376;-4.312;2022-07-29T07:45:45;3.45;;;1.83;;
53064;SDS011;38948;48.376;-4.312;2022-07-29T07:48:11;5.80;;;2.00;;
53064;SDS011;38948;48.376;-4.312;2022-07-29T07:50:40;2.85;;;1.80;;
53064;SDS011;38948;48.376;-4.312;2022-07-29T07:53:06;4.28;;;1.75;;
53064;SDS011;38948;48.376;-4.312;2022-07-29T07:55:32;4.13;;;1.55;;
53064;SDS011;38948;48.376;-4.312;2022-07-29T07:57:58;5.75;;;1.95;;
53064;SDS011;38948;48.376;-4.312;2022-07-29T08:00:24;2.72;;;1.50;;
53064;SDS011;38948;48.376;-4.312;2022-07-29T08:02:51;3.10;;;1.58;;
53064;SDS011;38948;48.376;-4.312;2022-07-29T08:05:17;3.72;;;1.65;;
53064;SDS011;38948;48.376;-4.312;2022-07-29T08:07:45;2.58;;;1.60;;
53064;SDS011;38948;48.376;-4.312;2022-07-29T08:10:11;3.47;;;1.67;;
53064;SDS011;38948;48.376;-4.312;2022-07-29T08:12:38;4.60;;;1.60;;
53064;SDS011;38948;48.376;-4.312;2022-07-29T08:15:04;5.22;;;1.65;;
53064;SDS011;38948;48.376;-4.312;2022-07-29T08:17:32;4.05;;;1.48;;
53064;SDS011;38948;48.376;-4.312;2022-07-29T08:20:07;6.60;;;1.60;;
53064;SDS011;38948;48.376;-4.312;2022-07-29T08:22:34;5.78;;;1.67;;
53064;SDS011;38948;48.376;-4.312;2022-07-29T08:25:00;3.53;;;2.00;;
53064;SDS011;38948;48.376;-4.312;2022-07-29T08:27:26;1.90;;;1.30;;
53064;SDS011;38948;48.376;-4.312;2022-07-29T08:29:55;3.97;;;1.90;;
53064;SDS011;38948;48.376;-4.312;2022-07-29T08:32:22;3.55;;;1.83;;
53064;SDS011;38948;48.376;-4.312;2022-07-29T08:34:48;3.30;;;1.52;;
53064;SDS011;38948;48.376;-4.312;2022-07-29T08:37:14;2.72;;;1.50;;
53064;SDS011;38948;48.376;-4.312;2022-07-29T08:39:40;3.92;;;1.60;;
53064;SDS011;38948;48.376;-4.312;2022-07-29T08:42:07;4.40;;;1.67;;
53064;SDS011;38948;48.376;-4.312;2022-07-29T08:44:52;2.92;;;1.55;;
53064;SDS011;38948;48.376;-4.312;2022-07-29T08:47:19;3.72;;;1.92;;
53064;SDS011;38948;48.376;-4.312;2022-07-29T08:49:45;3.92;;;1.70;;
53064;SDS011;38948;48.376;-4.312;2022-07-29T08:52:13;3.92;;;1.83;;
53064;SDS011;38948;48.376;-4.312;2022-07-29T08:54:40;3.95;;;1.83;;
53064;SDS011;38948;48.376;-4.312;2022-07-29T08:57:10;2.65;;;1.40;;
53064;SDS011;38948;48.376;-4.312;2022-07-29T08:59:38;8.70;;;1.45;;
53064;SDS011;38948;48.376;-4.312;2022-07-29T09:02:11;6.78;;;1.75;;
53064;SDS011;38948;48.376;-4.312;2022-07-29T09:04:43;2.88;;;1.27;;
53064;SDS011;38948;48.376;-4.312;2022-07-29T09:07:10;3.97;;;1.17;;
53064;SDS011;38948;48.376;-4.312;2022-07-29T09:09:39;2.05;;;1.25;;
53064;SDS011;38948;48.376;-4.312;2022-07-29T09:12:06;3.20;;;1.42;;
53064;SDS011;38948;48.376;-4.312;2022-07-29T09:14:34;5.97;;;1.85;;
53064;SDS011;38948;48.376;-4.312;2022-07-29T09:17:00;3.60;;;1.30;;
53064;SDS011;38948;48.376;-4.312;2022-07-29T09:19:27;3.97;;;1.20;;
53064;SDS011;38948;48.376;-4.312;2022-07-29T09:21:54;4.40;;;1.25;;
53064;SDS011;38948;48.376;-4.312;2022-07-29T09:26:59;2.47;;;1.10;;
53064;SDS011;38948;48.376;-4.312;2022-07-29T09:29:25;3.13;;;1.15;;
53064;SDS011;38948;48.376;-4.312;2022-07-29T09:31:52;4.45;;;1.10;;
53064;SDS011;38948;48.376;-4.312;2022-07-29T09:34:23;3.28;;;1.40;;
53064;SDS011;38948;48.376;-4.312;2022-07-29T09:36:50;2.78;;;1.05;;
53064;SDS011;38948;48.376;-4.312;2022-07-29T09:39:27;8.48;;;1.15;;
53064;SDS011;38948;48.376;-4.312;2022-07-29T09:41:54;2.63;;;1.00;;
53064;SDS011;38948;48.376;-4.312;2022-07-29T09:44:22;2.15;;;1.15;;
53064;SDS011;38948;48.376;-4.312;2022-07-29T09:47:06;2.30;;;1.27;;
53064;SDS011;38948;48.376;-4.312;2022-07-29T09:49:36;4.40;;;1.27;;
53064;SDS011;38948;48.376;-4.312;2022-07-29T09:52:15;2.03;;;0.93;;
53064;SDS011;38948;48.376;-4.312;2022-07-29T09:54:41;2.72;;;1.20;;
53064;SDS011;38948;48.376;-4.312;2022-07-29T09:57:08;3.97;;;1.20;;
53064;SDS011;38948;48.376;-4.312;2022-07-29T09:59:38;11.13;;;2.33;;
53064;SDS011;38948;48.376;-4.312;2022-07-29T10:02:13;3.58;;;1.40;;
53064;SDS011;38948;48.376;-4.312;2022-07-29T10:04:41;3.65;;;1.10;;
53064;SDS011;38948;48.376;-4.312;2022-07-29T10:07:07;5.15;;;1.38;;
53064;SDS011;38948;48.376;-4.312;2022-07-29T10:09:34;1.92;;;1.10;;
53064;SDS011;38948;48.376;-4.312;2022-07-29T10:12:07;2.25;;;1.23;;
53064;SDS011;38948;48.376;-4.312;2022-07-29T10:14:34;2.55;;;1.05;;
53064;SDS011;38948;48.376;-4.312;2022-07-29T10:17:01;3.30;;;1.00;;
53064;SDS011;38948;48.376;-4.312;2022-07-29T10:19:28;2.88;;;1.30;;
53064;SDS011;38948;48.376;-4.312;2022-07-29T10:21:56;2.00;;;1.40;;
53064;SDS011;38948;48.376;-4.312;2022-07-29T10:24:22;2.55;;;1.15;;
53064;SDS011;38948;48.376;-4.312;2022-07-29T10:26:50;1.85;;;0.95;;
53064;SDS011;38948;48.376;-4.312;2022-07-29T10:29:16;5.85;;;1.00;;
53064;SDS011;38948;48.376;-4.312;2022-07-29T10:32:29;2.80;;;1.40;;
53064;SDS011;38948;48.376;-4.312;2022-07-29T10:37:33;2.85;;;1.15;;
53064;SDS011;38948;48.376;-4.312;2022-07-29T10:40:10;2.03;;;1.08;;
53064;SDS011;38948;48.376;-4.312;2022-07-29T10:45:25;2.65;;;1.10;;
53064;SDS011;38948;48.376;-4.312;2022-07-29T10:48:03;1.95;;;0.90;;
53064;SDS011;38948;48.376;-4.312;2022-07-29T10:53:17;2.33;;;1.27;;
53064;SDS011;38948;48.376;-4.312;2022-07-29T10:55:46;2.40;;;1.50;;
53064;SDS011;38948;48.376;-4.312;2022-07-29T10:58:16;3.13;;;1.40;;
53064;SDS011;38948;48.376;-4.312;2022-07-29T11:00:51;2.75;;;1.33;;
53064;SDS011;38948;48.376;-4.312;2022-07-29T11:06:07;4.00;;;1.45;;
53064;SDS011;38948;48.376;-4.312;2022-07-29T11:08:40;2.28;;;1.30;;
53064;SDS011;38948;48.376;-4.312;2022-07-29T11:14:03;2.53;;;1.02;;
53064;SDS011;38948;48.376;-4.312;2022-07-29T11:21:44;2.67;;;1.30;;
53064;SDS011;38948;48.376;-4.312;2022-07-29T11:27:14;1.98;;;0.98;;
53064;SDS011;38948;48.376;-4.312;2022-07-29T11:29:51;1.63;;;1.00;;
53064;SDS011;38948;48.376;-4.312;2022-07-29T11:32:21;1.40;;;1.00;;
53064;SDS011;38948;48.376;-4.312;2022-07-29T11:34:48;4.30;;;1.40;;
53064;SDS011;38948;48.376;-4.312;2022-07-29T11:37:21;5.80;;;1.45;;
53064;SDS011;38948;48.376;-4.312;2022-07-29T11:40:07;1.40;;;1.10;;
53064;SDS011;38948;48.376;-4.312;2022-07-29T11:45:08;3.22;;;1.42;;
53064;SDS011;38948;48.376;-4.312;2022-07-29T11:47:39;2.38;;;1.23;;
53064;SDS011;38948;48.376;-4.312;2022-07-29T11:50:26;5.03;;;1.10;;
53064;SDS011;38948;48.376;-4.312;2022-07-29T11:52:58;4.28;;;1.35;;
53064;SDS011;38948;48.376;-4.312;2022-07-29T11:55:24;1.67;;;1.00;;
53064;SDS011;38948;48.376;-4.312;2022-07-29T11:58:02;2.72;;;1.17;;
53064;SDS011;38948;48.376;-4.312;2022-07-29T12:00:33;3.40;;;1.10;;
53064;SDS011;38948;48.376;-4.312;2022-07-29T12:03:01;2.92;;;1.05;;
53064;SDS011;38948;48.376;-4.312;2022-07-29T12:05:33;2.28;;;1.10;;
53064;SDS011;38948;48.376;-4.312;2022-07-29T12:08:06;2.58;;;1.20;;
53064;SDS011;38948;48.376;-4.312;2022-07-29T12:10:33;3.22;;;1.17;;
53064;SDS011;38948;48.376;-4.312;2022-07-29T12:12:59;2.97;;;1.10;;
53064;SDS011;38948;48.376;-4.312;2022-07-29T12:15:25;1.40;;;0.85;;
53064;SDS011;38948;48.376;-4.312;2022-07-29T12:17:52;4.05;;;1.23;;
53064;SDS011;38948;48.376;-4.312;2022-07-29T12:20:27;5.30;;;1.70;;
53064;SDS011;38948;48.376;-4.312;2022-07-29T12:22:54;2.92;;;1.40;;
53064;SDS011;38948;48.376;-4.312;2022-07-29T12:25:21;2.78;;;1.45;;
53064;SDS011;38948;48.376;-4.312;2022-07-29T12:27:57;1.40;;;1.08;;
53064;SDS011;38948;48.376;-4.312;2022-07-29T12:30:23;2.40;;;1.30;;
53064;SDS011;38948;48.376;-4.312;2022-07-29T12:32:59;3.38;;;1.25;;
53064;SDS011;38948;48.376;-4.312;2022-07-29T12:35:25;6.88;;;1.60;;
53064;SDS011;38948;48.376;-4.312;2022-07-29T12:37:51;2.90;;;1.30;;
53064;SDS011;38948;48.376;-4.312;2022-07-29T12:40:19;3.50;;;1.25;;
53064;SDS011;38948;48.376;-4.312;2022-07-29T12:45:32;3.38;;;1.38;;
53064;SDS011;38948;48.376;-4.312;2022-07-29T12:47:59;3.33;;;1.50;;
53064;SDS011;38948;48.376;-4.312;2022-07-29T12:50:25;2.38;;;1.55;;
53064;SDS011;38948;48.376;-4.312;2022-07-29T12:52:51;3.75;;;1.75;;
53064;SDS011;38948;48.376;-4.312;2022-07-29T12:58:06;3.63;;;1.80;;
53064;SDS011;38948;48.376;-4.312;2022-07-29T13:00:32;3.63;;;2.50;;
53064;SDS011;38948;48.376;-4.312;2022-07-29T13:02:59;6.03;;;2.15;;
53064;SDS011;38948;48.376;-4.312;2022-07-29T13:05:41;4.97;;;1.90;;
53064;SDS011;38948;48.376;-4.312;2022-07-29T13:08:16;3.40;;;1.60;;
53064;SDS011;38948;48.376;-4.312;2022-07-29T13:10:45;2.85;;;1.38;;
53064;SDS011;38948;48.376;-4.312;2022-07-29T13:13:12;3.40;;;1.20;;
53064;SDS011;38948;48.376;-4.312;2022-07-29T13:15:43;4.20;;;1.42;;
53064;SDS011;38948;48.376;-4.312;2022-07-29T13:18:29;3.58;;;1.42;;
53064;SDS011;38948;48.376;-4.312;2022-07-29T13:20:57;3.85;;;1.33;;
53064;SDS011;38948;48.376;-4.312;2022-07-29T13:23:39;3.45;;;1.27;;
53064;SDS011;38948;48.376;-4.312;2022-07-29T13:26:08;4.78;;;1.30;;
53064;SDS011;38948;48.376;-4.312;2022-07-29T13:28:35;4.40;;;1.70;;
53064;SDS011;38948;48.376;-4.312;2022-07-29T13:31:01;3.22;;;1.17;;
53064;SDS011;38948;48.376;-4.312;2022-07-29T13:33:27;1.58;;;1.02;;
53064;SDS011;38948;48.376;-4.312;2022-07-29T13:35:53;5.15;;;1.13;;
53064;SDS011;38948;48.376;-4.312;2022-07-29T13:38:18;2.03;;;1.00;;
53064;SDS011;38948;48.376;-4.312;2022-07-29T13:40:44;4.07;;;1.15;;
53064;SDS011;38948;48.376;-4.312;2022-07-29T13:43:10;3.20;;;1.15;;
53064;SDS011;38948;48.376;-4.312;2022-07-29T13:45:36;1.83;;;1.17;;
53064;SDS011;38948;48.376;-4.312;2022-07-29T13:48:02;2.97;;;1.10;;
53064;SDS011;38948;48.376;-4.312;2022-07-29T13:50:28;1.80;;;1.00;;
53064;SDS011;38948;48.376;-4.312;2022-07-29T13:52:54;2.58;;;1.23;;
53064;SDS011;38948;48.376;-4.312;2022-07-29T13:55:20;1.35;;;0.98;;
53064;SDS011;38948;48.376;-4.312;2022-07-29T13:57:46;2.00;;;1.10;;
53064;SDS011;38948;48.376;-4.312;2022-07-29T14:00:12;3.40;;;1.30;;
53064;SDS011;38948;48.376;-4.312;2022-07-29T14:02:38;1.45;;;0.98;;
53064;SDS011;38948;48.376;-4.312;2022-07-29T14:05:05;2.53;;;1.27;;
53064;SDS011;38948;48.376;-4.312;2022-07-29T14:07:32;2.17;;;0.85;;
53064;SDS011;38948;48.376;-4.312;2022-07-29T14:09:58;2.78;;;1.05;;
53064;SDS011;38948;48.376;-4.312;2022-07-29T14:12:23;1.30;;;1.00;;
53064;SDS011;38948;48.376;-4.312;2022-07-29T14:14:49;2.03;;;1.00;;
53064;SDS011;38948;48.376;-4.312;2022-07-29T14:17:15;1.02;;;0.80;;
53064;SDS011;38948;48.376;-4.312;2022-07-29T14:19:41;2.15;;;0.98;;
53064;SDS011;38948;48.376;-4.312;2022-07-29T14:22:08;4.18;;;1.30;;
53064;SDS011;38948;48.376;-4.312;2022-07-29T14:24:34;2.63;;;1.17;;
53064;SDS011;38948;48.376;-4.312;2022-07-29T14:27:01;4.05;;;1.10;;
53064;SDS011;38948;48.376;-4.312;2022-07-29T14:29:26;3.90;;;1.30;;
53064;SDS011;38948;48.376;-4.312;2022-07-29T14:31:52;1.65;;;0.90;;
53064;SDS011;38948;48.376;-4.312;2022-07-29T14:34:19;4.20;;;1.27;;
53064;SDS011;38948;48.376;-4.312;2022-07-29T14:36:44;1.70;;;1.10;;
53064;SDS011;38948;48.376;-4.312;2022-07-29T14:39:10;1.33;;;0.85;;
53064;SDS011;38948;48.376;-4.312;2022-07-29T14:41:37;3.72;;;1.00;;
53064;SDS011;38948;48.376;-4.312;2022-07-29T14:44:03;3.10;;;0.90;;
53064;SDS011;38948;48.376;-4.312;2022-07-29T14:46:29;2.45;;;0.88;;
53064;SDS011;38948;48.376;-4.312;2022-07-29T14:48:55;1.02;;;0.80;;
53064;SDS011;38948;48.376;-4.312;2022-07-29T14:51:21;1.85;;;0.88;;
53064;SDS011;38948;48.376;-4.312;2022-07-29T14:53:47;2.13;;;0.80;;
53064;SDS011;38948;48.376;-4.312;2022-07-29T14:56:12;3.72;;;0.85;;
53064;SDS011;38948;48.376;-4.312;2022-07-29T14:58:38;2.63;;;0.85;;
53064;SDS011;38948;48.376;-4.312;2022-07-29T15:01:04;1.48;;;0.93;;
53064;SDS011;38948;48.376;-4.312;2022-07-29T15:03:31;2.95;;;0.98;;
53064;SDS011;38948;48.376;-4.312;2022-07-29T15:05:57;2.10;;;1.40;;
53064;SDS011;38948;48.376;-4.312;2022-07-29T15:08:23;3.78;;;1.13;;
53064;SDS011;38948;48.376;-4.312;2022-07-29T15:10:50;3.17;;;1.10;;
53064;SDS011;38948;48.376;-4.312;2022-07-29T15:13:16;1.50;;;1.00;;
53064;SDS011;38948;48.376;-4.312;2022-07-29T15:15:42;2.63;;;0.98;;
53064;SDS011;38948;48.376;-4.312;2022-07-29T15:18:09;3.03;;;1.02;;
53064;SDS011;38948;48.376;-4.312;2022-07-29T15:20:35;1.70;;;1.02;;
53064;SDS011;38948;48.376;-4.312;2022-07-29T15:23:01;1.40;;;0.88;;
53064;SDS011;38948;48.376;-4.312;2022-07-29T15:25:28;1.77;;;1.00;;
53064;SDS011;38948;48.376;-4.312;2022-07-29T15:27:54;2.10;;;0.95;;
53064;SDS011;38948;48.376;-4.312;2022-07-29T15:30:20;2.08;;;0.98;;